Time;durP1;ratioP1;P1;durP2;ratioP2;P2;SDS_P1;SDS_P2;PMS_P1;PMS_P2;Temp;Humidity;BMP_temperature;BMP_pressure;BME280_temperature;BME280_humidity;BME280_pressure;Samples;Min_cycle;Max_cycle;Signal;HPM_P1;HPM_P2
2023/01/27 00:00:11;;;;;;;26.95;14.80;;;;;;;17.99;100.00;100356.31;2077359;28;20133;-83
2023/01/27 00:01:36;;;;;;;20.35;13.73;;;;;;;18.02;100.00;100363.38;2077158;28;20639;-82
2023/01/27 00:02:58;;;;;;;23.70;14.02;;;;;;;18.05;100.00;100353.50;2089817;28;20577;-83
2023/01/27 00:04:20;;;;;;;23.85;14.80;;;;;;;18.10;100.00;100351.63;2090298;28;20049;-82
2023/01/27 00:05:42;;;;;;;23.58;12.73;;;;;;;18.12;100.00;100360.47;2085360;28;20052;-84
2023/01/27 00:07:06;;;;;;;23.83;13.50;;;;;;;18.10;100.00;100356.09;2085655;28;20053;-82
2023/01/27 00:08:29;;;;;;;21.23;13.55;;;;;;;18.08;100.00;100329.41;2085040;28;20045;-82
2023/01/27 00:09:50;;;;;;;21.73;12.50;;;;;;;18.10;100.00;100356.09;2086124;28;20056;-83
2023/01/27 00:14:32;;;;;;;23.70;14.02;;;;;;;18.09;100.00;100335.63;2089880;28;20037;-82
2023/01/27 00:15:53;;;;;;;23.13;12.55;;;;;;;18.11;100.00;100333.81;2087188;28;20053;-83
2023/01/27 00:17:15;;;;;;;23.00;12.50;;;;;;;18.14;100.00;100352.44;2087462;28;20417;-84
2023/01/27 00:18:37;;;;;;;25.17;11.82;;;;;;;18.16;100.00;100355.97;2087445;28;20056;-82
2023/01/27 00:19:59;;;;;;;22.88;13.63;;;;;;;18.16;100.00;100343.47;2087236;28;20121;-83
2023/01/27 00:24:54;;;;;;;21.73;13.15;;;;;;;18.19;100.00;100339.84;2089742;28;20126;-84
2023/01/27 00:26:18;;;;;;;20.45;11.07;;;;;;;18.21;100.00;100340.69;2081638;28;20045;-85
2023/01/27 00:27:40;;;;;;;28.90;13.18;;;;;;;18.21;100.00;100357.59;2087217;28;20040;-84
2023/01/27 00:29:02;;;;;;;21.80;12.38;;;;;;;18.17;100.00;100347.91;2087170;28;20049;-85
2023/01/27 00:30:24;;;;;;;23.42;13.68;;;;;;;18.14;100.00;100339.94;2086807;28;20044;-84
2023/01/27 00:33:25;;;;;;;20.83;12.15;;;;;;;18.13;100.00;100330.16;2089552;28;20056;-83
2023/01/27 00:34:47;;;;;;;;;;;;;;;18.13;100.00;100306.13;2079368;28;20033;-82
2023/01/27 00:36:10;;;;;;;20.20;12.75;;;;;;;18.20;100.00;100337.13;2092590;28;19986;-85
2023/01/27 00:37:34;;;;;;;17.70;11.05;;;;;;;18.21;100.00;100324.66;2080521;28;20073;-82
2023/01/27 00:38:58;;;;;;;22.58;12.73;;;;;;;18.21;100.00;100311.31;2076299;28;20084;-82
2023/01/27 00:40:21;;;;;;;23.77;14.07;;;;;;;18.20;100.00;100318.44;2078960;28;20064;-82
2023/01/27 00:41:42;;;;;;;16.80;12.48;;;;;;;18.19;100.00;100315.78;2071089;28;20038;-82
2023/01/27 00:43:04;;;;;;;23.02;13.02;;;;;;;18.18;100.00;100308.72;2083504;28;20049;-83
2023/01/27 00:44:26;;;;;;;21.98;12.20;;;;;;;18.17;100.00;100297.16;2081212;28;20077;-83
2023/01/27 00:45:48;;;;;;;18.42;12.60;;;;;;;18.17;100.00;100286.47;2081968;28;20638;-82
2023/01/27 00:47:10;;;;;;;17.65;11.55;;;;;;;18.16;100.00;100307.88;2089306;28;20517;-81
2023/01/27 00:48:32;;;;;;;18.45;11.48;;;;;;;18.18;100.00;100284.69;2087729;28;20058;-81
2023/01/27 00:49:55;;;;;;;22.48;11.88;;;;;;;18.16;100.00;100295.38;2087219;28;20079;-82
2023/01/27 00:51:17;;;;;;;22.25;12.68;;;;;;;18.15;100.00;100290.94;2076141;28;20045;-81
2023/01/27 00:52:39;;;;;;;23.33;12.77;;;;;;;18.11;100.00;100294.63;2082804;28;20070;-82
2023/01/27 00:54:03;;;;;;;24.15;11.40;;;;;;;18.10;100.00;100300.00;2081525;28;20685;-82
2023/01/27 00:55:26;;;;;;;28.27;13.07;;;;;;;18.06;100.00;100296.50;2091992;28;20057;-81
2023/01/27 00:56:48;;;;;;;23.58;12.23;;;;;;;18.06;100.00;100298.28;2075365;28;20049;-81
2023/01/27 00:58:09;;;;;;;24.10;12.60;;;;;;;18.03;100.00;100298.38;2088350;28;20497;-82
2023/01/27 00:59:32;;;;;;;23.08;12.25;;;;;;;18.01;100.00;100292.16;2086932;28;20068;-82
2023/01/27 01:00:53;;;;;;;22.02;11.50;;;;;;;18.02;100.00;100296.59;2075612;28;20057;-81
2023/01/27 01:02:16;;;;;;;23.38;12.73;;;;;;;18.02;100.00;100291.25;2083320;28;20037;-80
2023/01/27 01:03:37;;;;;;;25.42;13.43;;;;;;;18.01;100.00;100287.72;2081333;28;20635;-81
2023/01/27 01:04:59;;;;;;;21.63;11.77;;;;;;;18.02;100.00;100273.44;2088190;28;20099;-80
2023/01/27 01:06:23;;;;;;;23.08;11.90;;;;;;;18.06;100.00;100279.59;2071561;28;20142;-79
2023/01/27 01:07:45;;;;;;;27.23;13.65;;;;;;;18.09;100.00;100280.41;2080564;28;20045;-81
2023/01/27 01:09:09;;;;;;;23.67;14.05;;;;;;;18.12;100.00;100282.09;2076818;28;20108;-81
2023/01/27 01:10:30;;;;;;;22.60;12.88;;;;;;;18.12;100.00;100266.97;2076573;28;20053;-82
2023/01/27 01:11:53;;;;;;;23.88;11.23;;;;;;;18.14;100.00;100265.16;2075645;28;20042;-82
2023/01/27 01:13:15;;;;;;;23.17;12.55;;;;;;;18.16;100.00;100267.78;2084482;28;20053;-82
2023/01/27 01:14:37;;;;;;;19.40;11.55;;;;;;;18.14;100.00;100262.47;2095132;28;20041;-81
2023/01/27 01:16:06;;;;;;;21.13;13.15;;;;;;;18.16;100.00;100251.75;2106159;28;20113;-81
2023/01/27 01:17:29;;;;;;;22.50;11.23;;;;;;;18.17;100.00;100262.41;2082699;28;20045;-81
2023/01/27 01:18:53;;;;;;;21.42;11.48;;;;;;;18.17;100.00;100243.72;2084226;28;20037;-81
2023/01/27 01:20:15;;;;;;;22.17;11.35;;;;;;;18.18;100.00;100252.63;2086854;28;20083;-81
2023/01/27 01:21:38;;;;;;;23.05;13.48;;;;;;;18.21;100.00;100233.81;2088409;28;20037;-81
2023/01/27 01:22:59;;;;;;;20.13;13.90;;;;;;;18.24;100.00;100205.25;2089118;28;20045;-81
2023/01/27 01:24:22;;;;;;;19.48;10.50;;;;;;;18.29;100.00;100245.22;2078249;28;20147;-82
2023/01/27 01:25:52;;;;;;;18.45;10.25;;;;;;;18.29;100.00;100234.53;2071998;28;20046;-81
2023/01/27 01:27:14;;;;;;;20.40;11.38;;;;;;;18.30;100.00;100255.00;2079741;28;20077;-82
2023/01/27 01:28:36;;;;;;;19.80;11.48;;;;;;;18.30;100.00;100245.19;2078555;28;20091;-81
2023/01/27 01:29:59;;;;;;;17.70;9.50;;;;;;;18.30;100.00;100250.53;2078493;28;20045;-81
2023/01/27 01:31:22;;;;;;;19.05;10.25;;;;;;;18.30;100.00;100244.28;2078833;28;20484;-82
2023/01/27 01:32:43;;;;;;;20.85;11.80;;;;;;;18.28;100.00;100220.28;2086402;28;20045;-81
2023/01/27 01:34:05;;;;;;;20.65;13.13;;;;;;;18.28;100.00;100222.94;2081224;28;20068;-83
2023/01/27 01:35:28;;;;;;;28.33;14.23;;;;;;;18.28;100.00;100219.41;2078693;28;20050;-82
2023/01/27 01:36:49;;;;;;;21.73;12.90;;;;;;;18.26;100.00;100221.22;2078365;28;20520;-82
2023/01/27 01:38:12;;;;;;;27.13;13.15;;;;;;;18.24;100.00;100231.97;2080598;28;20080;-83
2023/01/27 01:39:35;;;;;;;20.88;12.15;;;;;;;18.23;100.00;100222.19;2086128;28;20048;-82
2023/01/27 01:40:56;;;;;;;23.70;12.07;;;;;;;18.21;100.00;100234.69;2086961;28;20621;-82
2023/01/27 01:42:19;;;;;;;21.27;11.45;;;;;;;18.22;100.00;100243.59;2077771;28;20042;-83
2023/01/27 01:43:41;;;;;;;23.15;11.05;;;;;;;18.24;100.00;100245.31;2092343;28;20041;-82
2023/01/27 01:45:45;;;;;;;21.20;10.68;;;;;;;18.24;100.00;100234.63;2086390;28;20049;-82
2023/01/27 01:47:11;;;;;;;15.98;10.15;;;;;;;18.24;100.00;100218.59;2090698;28;20041;-82
2023/01/27 01:48:36;;;;;;;20.05;10.43;;;;;;;18.27;100.00;100231.00;2073317;28;20057;-81
2023/01/27 01:49:58;;;;;;;25.25;11.65;;;;;;;18.28;100.00;100230.09;2070732;28;20482;-81
2023/01/27 01:51:24;;;;;;;15.88;9.90;;;;;;;18.29;100.00;100219.38;2084010;28;20045;-81
2023/01/27 01:52:48;;;;;;;16.77;9.88;;;;;;;18.32;100.00;100215.72;2078222;28;20644;-80
2023/01/27 01:54:14;;;;;;;22.45;11.25;;;;;;;18.35;100.00;100215.66;2090587;28;20159;-81
2023/01/27 01:55:39;;;;;;;24.13;10.55;;;;;;;18.33;100.00;100213.00;2082261;28;20068;-82
2023/01/27 01:57:07;;;;;;;18.23;8.57;;;;;;;18.31;100.00;100230.88;2086571;28;20064;-82
2023/01/27 01:58:29;;;;;;;14.73;6.35;;;;;;;18.26;100.00;100231.91;2090655;28;20037;-82
2023/01/27 01:59:56;;;;;;;19.00;8.00;;;;;;;18.21;100.00;100232.03;2088774;28;20053;-83
2023/01/27 02:01:19;;;;;;;17.40;7.65;;;;;;;18.17;100.00;100226.81;2081845;28;20038;-82
2023/01/27 02:02:41;;;;;;;15.50;8.43;;;;;;;18.12;100.00;100228.69;2083693;28;20041;-82
2023/01/27 02:04:07;;;;;;;17.50;7.15;;;;;;;18.00;100.00;100215.63;2080610;28;20095;-82
2023/01/27 02:05:34;;;;;;;19.90;8.65;;;;;;;17.70;100.00;100246.59;2087348;28;20739;-86
2023/01/27 02:07:04;;;;;;;20.92;9.77;;;;;;;17.38;100.00;100256.13;2086785;28;20413;-87
2023/01/27 02:08:29;;;;;;;18.52;9.20;;;;;;;17.14;100.00;100261.91;2086334;28;20416;-91
2023/01/27 02:09:52;;;;;;;22.05;9.85;;;;;;;16.89;100.00;100265.97;2072084;28;20056;-91
2023/01/27 02:11:16;;;;;;;27.10;11.15;;;;;;;16.66;100.00;100261.94;2082399;28;20451;-86
2023/01/27 02:12:37;;;;;;;28.75;12.52;;;;;;;16.49;100.00;100274.59;2094893;28;20032;-83
2023/01/27 02:14:02;;;;;;;22.33;11.20;;;;;;;16.28;100.00;100285.59;2080625;28;20044;-84
2023/01/27 02:15:23;;;;;;;31.20;11.68;;;;;;;16.13;100.00;100281.41;2083807;28;20053;-77
2023/01/27 02:27:13;;;;;;;1.85;0.80;;;;;;;13.79;100.00;100310.22;2089081;28;20362;-80
2023/01/27 02:28:35;;;;;;;0.95;0.63;;;;;;;13.90;100.00;100324.34;2087645;28;20055;-80
2023/01/27 02:29:56;;;;;;;0.13;0.13;;;;;;;14.01;100.00;100318.94;2094500;28;20061;-79
2023/01/27 02:31:19;;;;;;;2.95;1.35;;;;;;;14.13;100.00;100318.00;2088477;28;20052;-79
2023/01/27 02:32:43;;;;;;;0.52;0.28;;;;;;;14.24;100.00;100322.34;2076944;28;20060;-80
2023/01/27 02:34:12;;;;;;;0.82;0.63;;;;;;;14.33;100.00;100319.63;2089622;28;20057;-80
2023/01/27 02:35:38;;;;;;;1.40;0.88;;;;;;;14.46;100.00;100316.91;2074418;28;20041;-81
2023/01/27 02:37:05;;;;;;;0.60;0.32;;;;;;;14.52;100.00;100312.44;2075120;28;20045;-80
2023/01/27 02:38:28;;;;;;;1.30;1.20;;;;;;;14.53;100.00;100315.97;2084097;28;20075;-81
2023/01/27 02:39:52;;;;;;;0.47;0.45;;;;;;;14.52;100.00;100323.06;2086377;28;20137;-82
2023/01/27 02:41:18;;;;;;;0.20;0.20;;;;;;;14.54;100.00;100328.38;2073240;28;20046;-84
2023/01/27 02:42:42;;;;;;;5.38;1.00;;;;;;;14.53;100.00;100339.88;2082669;28;20068;-84
2023/01/27 02:44:05;;;;;;;3.90;1.25;;;;;;;14.55;100.00;100330.13;2079092;28;20637;-86
2023/01/27 02:45:28;;;;;;;6.03;0.43;;;;;;;14.58;100.00;100324.78;2077566;28;20049;-86
2023/01/27 02:46:51;;;;;;;0.75;0.63;;;;;;;14.60;100.00;100325.66;2083984;28;20045;-85
2023/01/27 02:48:16;;;;;;;0.60;0.25;;;;;;;14.58;100.00;100327.44;2088181;28;20473;-87
2023/01/27 02:49:42;;;;;;;0.20;0.20;;;;;;;14.57;100.00;100323.06;2078619;28;20541;-88
2023/01/27 02:51:03;;;;;;;1.15;0.52;;;;;;;14.59;100.00;100334.53;2078552;28;20152;-88
2023/01/27 02:52:30;;;;;;;0.20;0.20;;;;;;;14.63;100.00;100336.28;2070417;28;20096;-89
2023/01/27 02:53:55;;;;;;;0.10;0.10;;;;;;;14.65;100.00;100339.78;2083923;28;20049;-89
2023/01/27 02:55:16;;;;;;;0.00;0.00;;;;;;;14.65;100.00;100342.44;2072671;28;20057;-90
2023/01/27 02:56:40;;;;;;;0.45;0.22;;;;;;;14.64;100.00;100338.03;2075287;28;20136;-88
2023/01/27 02:58:04;;;;;;;0.00;0.00;;;;;;;14.65;100.00;100345.09;2078237;28;20060;-87
2023/01/27 02:59:56;;;;;;;0.15;0.15;;;;;;;14.62;100.00;100348.69;2078510;28;20060;-89
2023/01/27 03:01:31;;;;;;;0.95;0.68;;;;;;;14.65;100.00;100348.63;2094725;28;20105;-90
2023/01/27 03:03:00;;;;;;;0.30;0.30;;;;;;;14.67;100.00;100348.63;2080648;28;20049;-87
2023/01/27 03:04:24;;;;;;;0.00;0.00;;;;;;;14.68;100.00;100347.75;2086907;28;20075;-86
2023/01/27 03:05:49;;;;;;;0.10;0.10;;;;;;;14.69;100.00;100347.75;2078587;28;20049;-88
2023/01/27 03:07:14;;;;;;;0.10;0.10;;;;;;;14.69;100.00;100352.19;2084734;28;20551;-89
2023/01/27 03:08:37;;;;;;;0.15;0.15;;;;;;;14.69;100.00;100344.19;2078743;28;20083;-89
2023/01/27 03:10:00;;;;;;;0.00;0.00;;;;;;;14.68;100.00;100342.44;2075970;28;20486;-88
2023/01/27 03:13:01;;;;;;;0.00;0.00;;;;;;;14.59;100.00;100339.84;2079503;28;20045;-88
2023/01/27 03:19:25;;;;;;;1.73;0.40;;;;;;;14.40;100.00;100323.16;2080223;28;20068;-89
2023/01/27 03:20:49;;;;;;;0.03;0.03;;;;;;;14.38;100.00;100318.75;2084251;28;20056;-90
2023/01/27 03:22:11;;;;;;;;;;;;;;;14.33;100.00;100324.06;2086666;28;20041;-89
2023/01/27 03:23:37;;;;;;;0.75;0.75;;;;;;;14.30;100.00;100324.09;2085570;28;19928;-89
2023/01/27 03:25:00;;;;;;;0.73;0.55;;;;;;;14.28;100.00;100323.22;2086455;28;20052;-89
2023/01/27 03:26:23;;;;;;;0.95;0.43;;;;;;;14.24;100.00;100321.47;2086004;28;20052;-88
2023/01/27 03:27:51;;;;;;;1.23;0.75;;;;;;;14.22;100.00;100325.91;2078458;28;20046;-88
2023/01/27 03:31:22;;;;;;;0.55;0.55;;;;;;;14.15;100.00;100322.41;2072061;28;20140;-88
2023/01/27 03:32:53;;;;;;;1.88;1.10;;;;;;;14.13;100.00;100325.97;2085927;28;20057;-87
2023/01/27 03:34:34;;;;;;;1.80;1.58;;;;;;;14.11;100.00;100335.72;2088302;28;20124;-87
2023/01/27 03:46:21;;;;;;;0.70;0.63;;;;;;;13.96;100.00;100380.03;2088966;28;20060;-84
2023/01/27 03:47:44;;;;;;;8.52;1.70;;;;;;;13.88;100.00;100372.97;2088567;28;20107;-84
2023/01/27 03:49:08;;;;;;;2.08;1.67;;;;;;;13.79;100.00;100370.34;2091612;28;20052;-83
2023/01/27 03:50:36;;;;;;;0.17;0.15;;;;;;;13.75;100.00;100376.56;2087280;28;20044;-84
2023/01/27 03:52:00;;;;;;;2.60;1.30;;;;;;;13.74;100.00;100386.28;2088402;28;20049;-84
2023/01/27 03:53:21;;;;;;;0.40;0.40;;;;;;;13.72;100.00;100384.56;2094657;28;20061;-84
2023/01/27 03:54:44;;;;;;;1.55;1.25;;;;;;;13.70;100.00;100381.00;2084619;28;20524;-84
2023/01/27 03:56:06;;;;;;;4.03;0.75;;;;;;;13.70;100.00;100386.31;2079625;28;20409;-84
2023/01/27 03:57:28;;;;;;;;;;;;;;;13.68;100.00;100393.38;2081239;28;20049;-84
2023/01/27 03:58:51;;;;;;;0.98;0.20;;;;;;;13.61;100.00;100389.88;2081297;28;20444;-84
2023/01/27 04:00:13;;;;;;;0.43;0.32;;;;;;;13.59;100.00;100388.97;2086937;28;20052;-83
2023/01/27 04:01:37;;;;;;;1.60;0.82;;;;;;;13.62;100.00;100382.78;2087026;28;20149;-83
2023/01/27 04:08:00;;;;;;;2.95;0.80;;;;;;;13.63;100.00;100397.81;2089550;28;20064;-83
2023/01/27 04:09:24;;;;;;;0.10;0.10;;;;;;;13.59;100.00;100396.09;2086789;28;20049;-83
2023/01/27 04:11:53;;;;;;;1.13;0.35;;;;;;;13.61;100.00;100397.81;2087800;28;20429;-82
2023/01/27 04:12:26;;;;;;;2.03;0.60;;;;;;;13.61;100.00;100397.81;2089309;28;20077;-84
2023/01/27 04:13:49;;;;;;;0.00;0.00;;;;;;;13.63;100.00;100405.78;2079118;28;20453;-84
2023/01/27 04:15:11;;;;;;;0.13;0.13;;;;;;;13.62;100.00;100406.66;2084892;28;20049;-84
2023/01/27 04:16:34;;;;;;;0.00;0.00;;;;;;;13.63;100.00;100401.38;2082230;28;20037;-85
2023/01/27 04:17:58;;;;;;;0.47;0.47;;;;;;;13.59;100.00;100398.72;2085744;28;20067;-84
2023/01/27 04:19:21;;;;;;;0.00;0.00;;;;;;;13.54;100.00;100396.97;2086168;28;20045;-84
2023/01/27 04:20:43;;;;;;;0.00;0.00;;;;;;;13.49;100.00;100389.91;2084772;28;20091;-84
2023/01/27 04:22:07;;;;;;;0.20;0.20;;;;;;;13.43;100.00;100387.28;2086911;28;20049;-84
2023/01/27 04:23:28;;;;;;;3.53;0.90;;;;;;;13.37;100.00;100387.28;2090165;28;20114;-84
2023/01/27 04:24:50;;;;;;;0.17;0.17;;;;;;;13.30;100.00;100397.00;2087284;28;20041;-85
2023/01/27 04:26:12;;;;;;;0.32;0.20;;;;;;;13.25;100.00;100404.09;2087335;28;20381;-84
2023/01/27 04:27:34;;;;;;;0.25;0.20;;;;;;;13.22;100.00;100403.19;2094226;28;20037;-84
2023/01/27 04:28:55;;;;;;;0.38;0.22;;;;;;;13.20;100.00;100405.84;2081807;28;20513;-84
2023/01/27 04:30:18;;;;;;;;;;;;;;;13.17;100.00;100405.88;2083358;28;20049;-84
2023/01/27 04:31:39;;;;;;;0.82;0.63;;;;;;;13.18;100.00;100415.59;2084601;28;19921;-83
2023/01/27 04:33:05;;;;;;;0.20;0.03;;;;;;;13.19;100.00;100414.72;2085827;28;20049;-84
2023/01/27 04:34:29;;;;;;;0.00;0.00;;;;;;;13.17;100.00;100411.16;2086820;28;20044;-84
2023/01/27 04:35:50;;;;;;;0.10;0.08;;;;;;;13.16;100.00;100418.22;2087159;28;20493;-83
2023/01/27 04:37:12;;;;;;;1.00;0.45;;;;;;;13.16;100.00;100423.53;2087230;28;20053;-83
2023/01/27 04:38:34;;;;;;;0.13;0.13;;;;;;;13.18;100.00;100418.25;2079223;28;20045;-83
2023/01/27 04:39:56;;;;;;;0.15;0.15;;;;;;;13.18;100.00;100409.41;2092866;28;20059;-85
2023/01/27 04:41:17;;;;;;;0.10;0.10;;;;;;;13.18;100.00;100418.25;2089185;28;20072;-84
2023/01/27 04:42:40;;;;;;;2.28;0.50;;;;;;;13.16;100.00;100418.22;2086705;28;20080;-83
2023/01/27 04:44:02;;;;;;;0.20;0.15;;;;;;;13.15;100.00;100412.91;2086779;28;20513;-84
2023/01/27 04:45:25;;;;;;;0.00;0.00;;;;;;;13.15;100.00;100415.56;2078681;28;20061;-83
2023/01/27 04:46:47;;;;;;;1.88;0.43;;;;;;;13.18;100.00;100422.66;2078846;28;20053;-83
2023/01/27 04:48:10;;;;;;;0.05;0.05;;;;;;;13.20;100.00;100423.50;2090615;28;20048;-82
2023/01/27 04:49:32;;;;;;;0.10;0.10;;;;;;;13.21;100.00;100423.50;2073473;28;20510;-83
2023/01/27 04:50:54;;;;;;;0.00;0.00;;;;;;;13.19;100.00;100427.97;2086529;28;20049;-82
2023/01/27 04:52:16;;;;;;;4.28;0.65;;;;;;;13.18;100.00;100431.50;2093746;28;20123;-82
2023/01/27 04:53:42;;;;;;;0.05;0.05;;;;;;;13.18;100.00;100434.13;2077078;28;20054;-82
2023/01/27 04:55:05;;;;;;;0.10;0.10;;;;;;;13.22;100.00;100430.59;2084920;28;20144;-82
2023/01/27 04:56:28;;;;;;;0.00;0.00;;;;;;;13.24;100.00;100431.47;2087034;28;20049;-82
2023/01/27 04:57:50;;;;;;;0.00;0.00;;;;;;;13.26;100.00;100429.69;2078393;28;20119;-82
2023/01/27 04:59:13;;;;;;;0.00;0.00;;;;;;;13.28;100.00;100437.66;2084422;28;20059;-81
2023/01/27 05:00:35;;;;;;;0.00;0.00;;;;;;;13.25;100.00;100433.25;2084951;28;20084;-82
2023/01/27 05:01:58;;;;;;;0.00;0.00;;;;;;;13.20;100.00;100432.34;2085745;28;20481;-83
2023/01/27 05:03:20;;;;;;;0.75;0.20;;;;;;;13.12;100.00;100420.84;2082847;28;20115;-82
2023/01/27 05:04:42;;;;;;;0.32;0.32;;;;;;;13.06;100.00;100428.81;2087195;28;20428;-83
2023/01/27 05:06:04;;;;;;;0.00;0.00;;;;;;;12.93;100.00;100422.59;2081282;28;20524;-82
2023/01/27 05:07:26;;;;;;;0.28;0.28;;;;;;;12.87;100.00;100427.00;2085740;28;20460;-82
2023/01/27 05:08:48;;;;;;;0.15;0.08;;;;;;;12.85;100.00;100431.44;2081816;28;20104;-81
2023/01/27 05:10:11;;;;;;;0.65;0.30;;;;;;;12.85;100.00;100436.75;2081234;28;20481;-82
2023/01/27 05:11:33;;;;;;;0.03;0.03;;;;;;;12.85;100.00;100428.78;2078946;28;20033;-83
2023/01/27 05:12:55;;;;;;;0.30;0.30;;;;;;;12.83;100.00;100430.53;2079153;28;20061;-82
2023/01/27 05:14:22;;;;;;;0.55;0.52;;;;;;;12.77;100.00;100429.66;2084924;28;20049;-81
2023/01/27 05:15:44;;;;;;;0.15;0.15;;;;;;;12.78;100.00;100430.56;2081554;28;20049;-82
2023/01/27 05:17:06;;;;;;;0.20;0.20;;;;;;;12.78;100.00;100423.50;2084451;28;20045;-81
2023/01/27 05:18:29;;;;;;;0.30;0.30;;;;;;;12.81;100.00;100430.53;2086922;28;20083;-81
2023/01/27 05:19:51;;;;;;;0.00;0.00;;;;;;;12.78;100.00;100426.13;2078767;28;20046;-81
2023/01/27 05:21:15;;;;;;;0.00;0.00;;;;;;;12.74;100.00;100421.69;2085897;28;20514;-80
2023/01/27 05:22:37;;;;;;;0.32;0.08;;;;;;;12.71;100.00;100427.00;2076225;28;20053;-81
2023/01/27 05:23:58;;;;;;;0.20;0.20;;;;;;;12.68;100.00;100431.41;2084215;28;20052;-81
2023/01/27 05:25:20;;;;;;;0.45;0.45;;;;;;;12.61;100.00;100430.50;2086677;28;20256;-80
2023/01/27 05:26:43;;;;;;;0.82;0.82;;;;;;;12.53;100.00;100439.34;2078268;28;20049;-81
2023/01/27 05:28:04;;;;;;;0.05;0.05;;;;;;;12.47;100.00;100434.03;2084174;28;20512;-82
2023/01/27 05:29:26;;;;;;;0.25;0.25;;;;;;;12.48;100.00;100436.66;2078055;28;20131;-81
2023/01/27 05:30:47;;;;;;;0.65;0.65;;;;;;;12.50;100.00;100437.56;2086615;28;20036;-81
2023/01/27 05:32:10;;;;;;;0.55;0.35;;;;;;;12.49;100.00;100433.13;2094829;28;20080;-81
2023/01/27 05:33:32;;;;;;;0.60;0.32;;;;;;;12.52;100.00;100441.09;2089225;28;20041;-81
2023/01/27 05:34:55;;;;;;;0.80;0.50;;;;;;;12.52;100.00;100429.63;2086377;28;20457;-81
2023/01/27 05:36:19;;;;;;;0.30;0.30;;;;;;;12.45;100.00;100435.78;2082335;28;20533;-81
2023/01/27 05:37:41;;;;;;;0.90;0.38;;;;;;;12.44;100.00;100434.91;2086766;28;20045;-81
2023/01/27 05:39:04;;;;;;;0.00;0.00;;;;;;;12.46;100.00;100438.44;2086454;28;20048;-82
2023/01/27 05:40:25;;;;;;;0.25;0.25;;;;;;;12.47;100.00;100434.88;2094899;28;20048;-81
2023/01/27 05:41:47;;;;;;;3.47;0.68;;;;;;;12.47;100.00;100439.31;2078039;28;20073;-81
2023/01/27 05:43:09;;;;;;;0.10;0.10;;;;;;;12.39;100.00;100434.00;2082913;28;20053;-80
2023/01/27 05:44:32;;;;;;;0.63;0.38;;;;;;;12.35;100.00;100437.50;2086041;28;20053;-80
2023/01/27 05:45:53;;;;;;;0.45;0.43;;;;;;;12.34;100.00;100447.22;2085151;28;20421;-81
2023/01/27 05:47:15;;;;;;;0.10;0.10;;;;;;;12.29;100.00;100448.97;2084807;28;20102;-80
2023/01/27 05:48:40;;;;;;;0.47;0.28;;;;;;;12.30;100.00;100449.84;2084029;28;20053;-80
2023/01/27 05:50:01;;;;;;;0.25;0.25;;;;;;;12.35;100.00;100448.09;2094689;28;20037;-80
2023/01/27 05:51:25;;;;;;;0.00;0.00;;;;;;;12.39;100.00;100455.19;2081058;28;20038;-81
2023/01/27 05:52:47;;;;;;;0.20;0.20;;;;;;;12.37;100.00;100456.94;2084457;28;20053;-79
2023/01/27 05:54:10;;;;;;;0.00;0.00;;;;;;;12.30;100.00;100457.78;2085119;28;20052;-80
2023/01/27 05:55:31;;;;;;;0.90;0.25;;;;;;;12.24;100.00;100455.13;2086646;28;20464;-80
2023/01/27 05:56:53;;;;;;;1.85;0.93;;;;;;;12.20;100.00;100453.34;2085666;28;20072;-80
2023/01/27 05:58:15;;;;;;;0.30;0.30;;;;;;;12.20;100.00;100458.66;2078430;28;20422;-78
2023/01/27 05:59:37;;;;;;;0.32;0.32;;;;;;;12.26;100.00;100466.59;2076678;28;20045;-80
2023/01/27 06:01:07;;;;;;;0.10;0.10;;;;;;;12.37;100.00;100464.88;2081406;28;20053;-79
2023/01/27 06:02:29;;;;;;;0.00;0.00;;;;;;;12.43;100.00;100464.88;2079419;28;20052;-80
2023/01/27 06:03:52;;;;;;;0.60;0.40;;;;;;;12.50;100.00;100469.31;2089697;28;20044;-79
2023/01/27 06:05:14;;;;;;;0.40;0.38;;;;;;;12.61;100.00;100472.00;2089140;28;20068;-80
2023/01/27 06:06:36;;;;;;;0.00;0.00;;;;;;;12.70;100.00;100478.22;2085242;28;20683;-79
2023/01/27 06:07:57;;;;;;;0.00;0.00;;;;;;;12.81;100.00;100474.69;2076729;28;20516;-80
2023/01/27 06:09:20;;;;;;;0.10;0.10;;;;;;;12.91;100.00;100474.72;2074339;28;20053;-79
2023/01/27 06:10:41;;;;;;;0.00;0.00;;;;;;;13.01;100.00;100480.91;2077881;28;20075;-80
2023/01/27 06:12:03;;;;;;;0.00;0.00;;;;;;;13.06;100.00;100481.81;2080317;28;20114;-80
2023/01/27 06:13:29;;;;;;;0.00;0.00;;;;;;;13.10;100.00;100479.16;2086845;28;20688;-79
2023/01/27 06:14:52;;;;;;;0.22;0.22;;;;;;;13.18;100.00;100480.97;2084791;28;20123;-80
2023/01/27 06:16:17;;;;;;;0.47;0.10;;;;;;;13.24;100.00;100486.25;2080616;28;20119;-80
2023/01/27 06:17:38;;;;;;;0.00;0.00;;;;;;;13.27;100.00;100497.72;2086709;28;20496;-80
2023/01/27 06:19:02;;;;;;;0.55;0.47;;;;;;;13.28;100.00;100488.00;2085819;28;20135;-80
2023/01/27 06:20:23;;;;;;;1.08;0.45;;;;;;;13.23;100.00;100490.69;2084660;28;20045;-80
2023/01/27 06:21:45;;;;;;;0.17;0.00;;;;;;;13.21;100.00;100495.09;2085596;28;20068;-79
2023/01/27 06:23:07;;;;;;;0.43;0.43;;;;;;;13.22;100.00;100491.56;2086066;28;20041;-80
2023/01/27 06:24:29;;;;;;;0.32;0.20;;;;;;;13.24;100.00;100489.78;2072208;28;20120;-79
2023/01/27 06:25:50;;;;;;;0.10;0.10;;;;;;;13.27;100.00;100503.03;2078949;28;20088;-79
2023/01/27 06:27:13;;;;;;;0.03;0.03;;;;;;;13.32;100.00;100509.25;2080459;28;20049;-79
2023/01/27 06:28:35;;;;;;;0.38;0.38;;;;;;;13.39;100.00;100504.84;2085148;28;20115;-79
2023/01/27 06:29:56;;;;;;;0.00;0.00;;;;;;;13.46;100.00;100506.56;2085089;28;20053;-79
2023/01/27 06:31:20;;;;;;;0.30;0.30;;;;;;;13.52;100.00;100509.25;2078746;28;20045;-78
2023/01/27 06:32:42;;;;;;;0.00;0.00;;;;;;;13.57;100.00;100510.13;2085988;28;20087;-80
2023/01/27 06:34:05;;;;;;;0.32;0.25;;;;;;;13.54;100.00;100510.09;2085645;28;20124;-78
2023/01/27 06:35:28;;;;;;;0.00;0.00;;;;;;;13.46;100.00;100514.53;2085803;28;20040;-78
2023/01/27 06:36:52;;;;;;;0.80;0.75;;;;;;;13.42;100.00;100518.06;2086760;28;20543;-78
2023/01/27 06:38:15;;;;;;;0.00;0.00;;;;;;;13.49;100.00;100526.03;2072098;28;20046;-79
2023/01/27 06:39:37;;;;;;;0.28;0.17;;;;;;;13.59;100.00;100520.72;2079838;28;20091;-78
2023/01/27 06:41:00;;;;;;;0.35;0.10;;;;;;;13.68;100.00;100524.25;2077916;28;20053;-78
2023/01/27 06:42:23;;;;;;;0.10;0.10;;;;;;;13.72;100.00;100523.34;2078693;28;20034;-80
2023/01/27 06:43:45;;;;;;;0.32;0.13;;;;;;;13.76;100.00;100524.25;2077612;28;20057;-78
2023/01/27 06:45:08;;;;;;;0.00;0.00;;;;;;;13.76;100.00;100527.78;2077773;28;20049;-79
2023/01/27 06:46:30;;;;;;;0.35;0.32;;;;;;;13.73;100.00;100525.13;2084751;28;20037;-79
2023/01/27 06:47:55;;;;;;;0.30;0.30;;;;;;;13.67;100.00;100532.19;2085155;28;20052;-79
2023/01/27 06:49:19;;;;;;;0.30;0.30;;;;;;;13.65;100.00;100536.66;2083427;28;20041;-79
2023/01/27 06:50:42;;;;;;;0.28;0.28;;;;;;;13.63;100.00;100544.59;2090586;28;20044;-79
2023/01/27 06:52:04;;;;;;;1.20;1.10;;;;;;;13.64;100.00;100551.66;2084603;28;20094;-80
2023/01/27 06:53:26;;;;;;;7.70;1.50;;;;;;;13.66;100.00;100551.66;2087223;28;20045;-80
2023/01/27 06:54:49;;;;;;;0.28;0.28;;;;;;;13.71;100.00;100555.22;2085042;28;20536;-80
2023/01/27 06:56:11;;;;;;;0.77;0.68;;;;;;;13.81;100.00;100546.34;2085027;28;20118;-81
2023/01/27 06:57:33;;;;;;;0.80;0.80;;;;;;;14.03;100.00;100550.75;2086264;28;20135;-80
2023/01/27 06:58:55;;;;;;;1.25;1.15;;;;;;;14.29;100.00;100555.97;2085020;28;20103;-80
2023/01/27 07:00:18;;;;;;;0.52;0.38;;;;;;;14.56;100.00;100563.00;2084944;28;20130;-80
2023/01/27 07:01:40;;;;;;;2.83;0.73;;;;;;;14.78;100.00;100567.31;2080394;28;20556;-81
2023/01/27 07:03:03;;;;;;;0.63;0.63;;;;;;;14.99;100.00;100563.69;2092023;28;20124;-80
2023/01/27 07:04:26;;;;;;;0.45;0.45;;;;;;;15.11;100.00;100572.47;2078906;28;20045;-80